sensor_id;sensor_type;location;lat;lon;timestamp;P1;durP1;ratioP1;P2;durP2;ratioP2
9056;SDS011;4563;54.756;9.400;2023-03-23T00:00:29;8.50;;;7.70;;
9056;SDS011;4563;54.756;9.400;2023-03-23T00:02:57;7.57;;;6.87;;
9056;SDS011;4563;54.756;9.400;2023-03-23T00:05:23;7.33;;;6.77;;
9056;SDS011;4563;54.756;9.400;2023-03-23T00:07:52;7.67;;;6.97;;
9056;SDS011;4563;54.756;9.400;2023-03-23T00:10:20;8.07;;;7.03;;
9056;SDS011;4563;54.756;9.400;2023-03-23T00:12:49;12.67;;;7.40;;
9056;SDS011;4563;54.756;9.400;2023-03-23T00:15:16;9.33;;;8.07;;
9056;SDS011;4563;54.756;9.400;2023-03-23T00:17:42;8.53;;;7.73;;
9056;SDS011;4563;54.756;9.400;2023-03-23T00:20:10;8.13;;;7.33;;
9056;SDS011;4563;54.756;9.400;2023-03-23T00:22:37;8.37;;;7.57;;
9056;SDS011;4563;54.756;9.400;2023-03-23T00:25:07;8.43;;;7.60;;
9056;SDS011;4563;54.756;9.400;2023-03-23T00:27:34;8.20;;;7.40;;
9056;SDS011;4563;54.756;9.400;2023-03-23T00:30:01;8.30;;;7.60;;
9056;SDS011;4563;54.756;9.400;2023-03-23T00:32:28;8.27;;;7.47;;
9056;SDS011;4563;54.756;9.400;2023-03-23T00:34:55;9.00;;;7.47;;
9056;SDS011;4563;54.756;9.400;2023-03-23T00:37:24;7.70;;;7.00;;
9056;SDS011;4563;54.756;9.400;2023-03-23T00:39:51;8.00;;;7.30;;
9056;SDS011;4563;54.756;9.400;2023-03-23T00:42:23;7.57;;;6.80;;
9056;SDS011;4563;54.756;9.400;2023-03-23T00:44:51;8.13;;;6.97;;
9056;SDS011;4563;54.756;9.400;2023-03-23T00:47:26;8.83;;;7.90;;
9056;SDS011;4563;54.756;9.400;2023-03-23T00:49:53;7.40;;;6.80;;
9056;SDS011;4563;54.756;9.400;2023-03-23T00:52:21;7.93;;;7.20;;
9056;SDS011;4563;54.756;9.400;2023-03-23T00:54:48;7.53;;;6.93;;
9056;SDS011;4563;54.756;9.400;2023-03-23T00:57:14;7.20;;;6.67;;
9056;SDS011;4563;54.756;9.400;2023-03-23T00:59:44;8.00;;;7.17;;
9056;SDS011;4563;54.756;9.400;2023-03-23T01:02:11;7.40;;;6.70;;
9056;SDS011;4563;54.756;9.400;2023-03-23T01:04:37;9.13;;;6.70;;
9056;SDS011;4563;54.756;9.400;2023-03-23T01:07:04;7.30;;;6.60;;
9056;SDS011;4563;54.756;9.400;2023-03-23T01:09:33;8.00;;;6.63;;
9056;SDS011;4563;54.756;9.400;2023-03-23T01:12:01;7.40;;;6.10;;
9056;SDS011;4563;54.756;9.400;2023-03-23T01:14:27;7.27;;;6.30;;
9056;SDS011;4563;54.756;9.400;2023-03-23T01:16:55;7.03;;;5.63;;
9056;SDS011;4563;54.756;9.400;2023-03-23T01:19:22;6.60;;;5.97;;
9056;SDS011;4563;54.756;9.400;2023-03-23T01:21:49;6.73;;;6.17;;
9056;SDS011;4563;54.756;9.400;2023-03-23T01:24:16;5.33;;;4.90;;
9056;SDS011;4563;54.756;9.400;2023-03-23T01:26:43;6.20;;;5.63;;
9056;SDS011;4563;54.756;9.400;2023-03-23T01:29:10;5.97;;;5.33;;
9056;SDS011;4563;54.756;9.400;2023-03-23T01:31:37;7.60;;;5.70;;
9056;SDS011;4563;54.756;9.400;2023-03-23T01:34:05;5.27;;;4.63;;
9056;SDS011;4563;54.756;9.400;2023-03-23T01:36:31;5.43;;;4.93;;
9056;SDS011;4563;54.756;9.400;2023-03-23T01:38:58;5.03;;;4.63;;
9056;SDS011;4563;54.756;9.400;2023-03-23T01:41:27;5.20;;;4.50;;
9056;SDS011;4563;54.756;9.400;2023-03-23T01:43:58;6.67;;;4.20;;
9056;SDS011;4563;54.756;9.400;2023-03-23T01:46:28;4.53;;;3.30;;
9056;SDS011;4563;54.756;9.400;2023-03-23T01:48:55;4.97;;;2.83;;
9056;SDS011;4563;54.756;9.400;2023-03-23T01:51:25;3.00;;;2.57;;
9056;SDS011;4563;54.756;9.400;2023-03-23T01:53:54;2.77;;;2.57;;
9056;SDS011;4563;54.756;9.400;2023-03-23T01:56:24;2.50;;;2.30;;
9056;SDS011;4563;54.756;9.400;2023-03-23T01:58:54;2.23;;;2.03;;
9056;SDS011;4563;54.756;9.400;2023-03-23T02:01:22;2.10;;;1.93;;
9056;SDS011;4563;54.756;9.400;2023-03-23T02:03:50;2.20;;;2.00;;
9056;SDS011;4563;54.756;9.400;2023-03-23T02:06:20;1.67;;;1.57;;
9056;SDS011;4563;54.756;9.400;2023-03-23T02:08:49;2.50;;;1.40;;
9056;SDS011;4563;54.756;9.400;2023-03-23T02:11:18;1.00;;;1.00;;
9056;SDS011;4563;54.756;9.400;2023-03-23T02:13:46;1.57;;;0.80;;
9056;SDS011;4563;54.756;9.400;2023-03-23T02:16:15;1.47;;;0.70;;
9056;SDS011;4563;54.756;9.400;2023-03-23T02:18:53;0.83;;;0.60;;
9056;SDS011;4563;54.756;9.400;2023-03-23T02:21:34;0.40;;;0.40;;
9056;SDS011;4563;54.756;9.400;2023-03-23T02:24:35;3.73;;;0.40;;
9056;SDS011;4563;54.756;9.400;2023-03-23T02:27:23;1.90;;;0.30;;
9056;SDS011;4563;54.756;9.400;2023-03-23T02:30:14;3.53;;;0.40;;
9056;SDS011;4563;54.756;9.400;2023-03-23T02:33:11;1.23;;;0.30;;
9056;SDS011;4563;54.756;9.400;2023-03-23T02:35:56;0.20;;;0.20;;
9056;SDS011;4563;54.756;9.400;2023-03-23T02:38:26;2.10;;;0.37;;
9056;SDS011;4563;54.756;9.400;2023-03-23T02:40:56;2.73;;;0.40;;
9056;SDS011;4563;54.756;9.400;2023-03-23T02:43:25;0.20;;;0.20;;
9056;SDS011;4563;54.756;9.400;2023-03-23T02:45:56;1.03;;;0.23;;
9056;SDS011;4563;54.756;9.400;2023-03-23T02:48:27;0.30;;;0.30;;
9056;SDS011;4563;54.756;9.400;2023-03-23T02:50:56;0.20;;;0.20;;
9056;SDS011;4563;54.756;9.400;2023-03-23T02:53:23;1.30;;;0.47;;
9056;SDS011;4563;54.756;9.400;2023-03-23T02:55:52;0.30;;;0.27;;
9056;SDS011;4563;54.756;9.400;2023-03-23T02:58:21;0.57;;;0.43;;
9056;SDS011;4563;54.756;9.400;2023-03-23T03:00:48;2.27;;;0.27;;
9056;SDS011;4563;54.756;9.400;2023-03-23T03:03:16;2.07;;;0.40;;
9056;SDS011;4563;54.756;9.400;2023-03-23T03:05:49;1.70;;;0.20;;
9056;SDS011;4563;54.756;9.400;2023-03-23T03:08:24;1.53;;;0.30;;
9056;SDS011;4563;54.756;9.400;2023-03-23T03:10:54;2.07;;;0.80;;
9056;SDS011;4563;54.756;9.400;2023-03-23T03:13:28;0.60;;;0.20;;
9056;SDS011;4563;54.756;9.400;2023-03-23T03:16:00;1.60;;;0.20;;
9056;SDS011;4563;54.756;9.400;2023-03-23T03:18:33;0.40;;;0.20;;
9056;SDS011;4563;54.756;9.400;2023-03-23T03:21:06;0.80;;;0.20;;
9056;SDS011;4563;54.756;9.400;2023-03-23T03:23:35;4.73;;;0.20;;
9056;SDS011;4563;54.756;9.400;2023-03-23T03:26:06;0.80;;;0.27;;
9056;SDS011;4563;54.756;9.400;2023-03-23T03:28:36;1.93;;;0.30;;
9056;SDS011;4563;54.756;9.400;2023-03-23T03:31:03;1.00;;;0.23;;
9056;SDS011;4563;54.756;9.400;2023-03-23T03:33:32;0.77;;;0.33;;
9056;SDS011;4563;54.756;9.400;2023-03-23T03:36:00;0.50;;;0.50;;
9056;SDS011;4563;54.756;9.400;2023-03-23T03:38:40;0.63;;;0.40;;
9056;SDS011;4563;54.756;9.400;2023-03-23T03:41:07;0.83;;;0.20;;
9056;SDS011;4563;54.756;9.400;2023-03-23T03:43:34;0.10;;;0.10;;
9056;SDS011;4563;54.756;9.400;2023-03-23T03:46:01;3.33;;;0.30;;
9056;SDS011;4563;54.756;9.400;2023-03-23T03:48:28;3.30;;;0.20;;
9056;SDS011;4563;54.756;9.400;2023-03-23T03:50:54;1.70;;;0.30;;
9056;SDS011;4563;54.756;9.400;2023-03-23T03:53:21;0.50;;;0.30;;
9056;SDS011;4563;54.756;9.400;2023-03-23T03:55:50;1.03;;;0.30;;
9056;SDS011;4563;54.756;9.400;2023-03-23T03:58:20;1.60;;;1.10;;
9056;SDS011;4563;54.756;9.400;2023-03-23T04:00:47;0.70;;;0.30;;
9056;SDS011;4563;54.756;9.400;2023-03-23T04:03:14;0.40;;;0.30;;
9056;SDS011;4563;54.756;9.400;2023-03-23T04:05:41;0.90;;;0.40;;
9056;SDS011;4563;54.756;9.400;2023-03-23T04:08:09;0.30;;;0.30;;
9056;SDS011;4563;54.756;9.400;2023-03-23T04:10:36;0.73;;;0.40;;
9056;SDS011;4563;54.756;9.400;2023-03-23T04:13:05;0.87;;;0.30;;
9056;SDS011;4563;54.756;9.400;2023-03-23T04:15:32;0.97;;;0.50;;
9056;SDS011;4563;54.756;9.400;2023-03-23T04:17:59;1.50;;;0.40;;
9056;SDS011;4563;54.756;9.400;2023-03-23T04:20:26;0.30;;;0.30;;
9056;SDS011;4563;54.756;9.400;2023-03-23T04:22:52;2.10;;;0.57;;
9056;SDS011;4563;54.756;9.400;2023-03-23T04:25:20;3.60;;;0.50;;
9056;SDS011;4563;54.756;9.400;2023-03-23T04:27:47;1.23;;;0.43;;
9056;SDS011;4563;54.756;9.400;2023-03-23T04:30:19;0.30;;;0.30;;
9056;SDS011;4563;54.756;9.400;2023-03-23T04:32:48;1.23;;;0.60;;
9056;SDS011;4563;54.756;9.400;2023-03-23T04:35:17;1.17;;;0.70;;
9056;SDS011;4563;54.756;9.400;2023-03-23T04:37:45;1.87;;;0.60;;
9056;SDS011;4563;54.756;9.400;2023-03-23T04:40:12;0.93;;;0.60;;
9056;SDS011;4563;54.756;9.400;2023-03-23T04:42:40;2.33;;;0.80;;
9056;SDS011;4563;54.756;9.400;2023-03-23T04:45:11;0.90;;;0.90;;
9056;SDS011;4563;54.756;9.400;2023-03-23T04:47:41;1.67;;;0.90;;
9056;SDS011;4563;54.756;9.400;2023-03-23T04:50:18;2.57;;;1.30;;
9056;SDS011;4563;54.756;9.400;2023-03-23T04:52:46;1.07;;;0.70;;
9056;SDS011;4563;54.756;9.400;2023-03-23T04:55:13;1.43;;;0.80;;
9056;SDS011;4563;54.756;9.400;2023-03-23T04:57:40;2.67;;;1.10;;
9056;SDS011;4563;54.756;9.400;2023-03-23T05:00:08;1.27;;;1.10;;
9056;SDS011;4563;54.756;9.400;2023-03-23T05:02:40;1.80;;;1.13;;
9056;SDS011;4563;54.756;9.400;2023-03-23T05:05:08;1.67;;;1.00;;
9056;SDS011;4563;54.756;9.400;2023-03-23T05:07:37;2.70;;;1.33;;
9056;SDS011;4563;54.756;9.400;2023-03-23T05:10:04;2.37;;;1.00;;
9056;SDS011;4563;54.756;9.400;2023-03-23T05:12:32;2.23;;;1.10;;
9056;SDS011;4563;54.756;9.400;2023-03-23T05:14:59;2.67;;;1.17;;
9056;SDS011;4563;54.756;9.400;2023-03-23T05:17:26;1.33;;;1.00;;
9056;SDS011;4563;54.756;9.400;2023-03-23T05:19:56;2.20;;;1.20;;
9056;SDS011;4563;54.756;9.400;2023-03-23T05:22:23;1.60;;;0.90;;
9056;SDS011;4563;54.756;9.400;2023-03-23T05:24:52;1.23;;;0.70;;
9056;SDS011;4563;54.756;9.400;2023-03-23T05:27:18;2.47;;;0.93;;
9056;SDS011;4563;54.756;9.400;2023-03-23T05:29:46;0.80;;;0.80;;
9056;SDS011;4563;54.756;9.400;2023-03-23T05:32:14;1.17;;;0.90;;
9056;SDS011;4563;54.756;9.400;2023-03-23T05:34:41;2.43;;;1.10;;
9056;SDS011;4563;54.756;9.400;2023-03-23T05:37:10;0.80;;;0.80;;
9056;SDS011;4563;54.756;9.400;2023-03-23T05:39:38;3.00;;;1.00;;
9056;SDS011;4563;54.756;9.400;2023-03-23T05:42:05;1.10;;;1.00;;
9056;SDS011;4563;54.756;9.400;2023-03-23T05:44:32;1.03;;;1.03;;
9056;SDS011;4563;54.756;9.400;2023-03-23T05:46:59;1.40;;;1.30;;
9056;SDS011;4563;54.756;9.400;2023-03-23T05:49:26;6.33;;;1.03;;
9056;SDS011;4563;54.756;9.400;2023-03-23T05:51:53;0.80;;;0.80;;
9056;SDS011;4563;54.756;9.400;2023-03-23T05:54:22;1.10;;;1.10;;
9056;SDS011;4563;54.756;9.400;2023-03-23T05:56:48;1.43;;;0.80;;
9056;SDS011;4563;54.756;9.400;2023-03-23T05:59:15;1.33;;;0.97;;
9056;SDS011;4563;54.756;9.400;2023-03-23T06:01:42;0.93;;;0.90;;
9056;SDS011;4563;54.756;9.400;2023-03-23T06:04:09;2.73;;;0.90;;
9056;SDS011;4563;54.756;9.400;2023-03-23T06:06:36;1.83;;;0.70;;
9056;SDS011;4563;54.756;9.400;2023-03-23T06:09:03;0.70;;;0.63;;
9056;SDS011;4563;54.756;9.400;2023-03-23T06:11:33;2.00;;;0.93;;
9056;SDS011;4563;54.756;9.400;2023-03-23T06:14:00;3.00;;;0.83;;
9056;SDS011;4563;54.756;9.400;2023-03-23T06:16:27;1.23;;;0.60;;
9056;SDS011;4563;54.756;9.400;2023-03-23T06:18:54;0.70;;;0.70;;
9056;SDS011;4563;54.756;9.400;2023-03-23T06:21:22;1.47;;;0.60;;
9056;SDS011;4563;54.756;9.400;2023-03-23T06:23:49;1.50;;;0.57;;
9056;SDS011;4563;54.756;9.400;2023-03-23T06:26:15;3.27;;;0.87;;
9056;SDS011;4563;54.756;9.400;2023-03-23T06:28:46;3.83;;;0.83;;
9056;SDS011;4563;54.756;9.400;2023-03-23T06:31:14;1.83;;;0.77;;
9056;SDS011;4563;54.756;9.400;2023-03-23T06:33:42;1.50;;;0.83;;
9056;SDS011;4563;54.756;9.400;2023-03-23T06:36:10;3.73;;;0.90;;
9056;SDS011;4563;54.756;9.400;2023-03-23T06:38:37;1.77;;;1.20;;
9056;SDS011;4563;54.756;9.400;2023-03-23T06:41:04;4.37;;;1.80;;
9056;SDS011;4563;54.756;9.400;2023-03-23T06:43:31;3.97;;;1.90;;
9056;SDS011;4563;54.756;9.400;2023-03-23T06:45:59;3.93;;;1.77;;
9056;SDS011;4563;54.756;9.400;2023-03-23T06:48:26;3.20;;;2.00;;
9056;SDS011;4563;54.756;9.400;2023-03-23T06:50:53;2.57;;;1.90;;
9056;SDS011;4563;54.756;9.400;2023-03-23T06:53:20;6.37;;;2.43;;
9056;SDS011;4563;54.756;9.400;2023-03-23T06:55:47;2.87;;;2.27;;
9056;SDS011;4563;54.756;9.400;2023-03-23T06:58:14;5.47;;;2.37;;
9056;SDS011;4563;54.756;9.400;2023-03-23T07:00:41;5.13;;;3.13;;
9056;SDS011;4563;54.756;9.400;2023-03-23T07:03:09;10.23;;;3.53;;
9056;SDS011;4563;54.756;9.400;2023-03-23T07:05:36;6.27;;;2.63;;
9056;SDS011;4563;54.756;9.400;2023-03-23T07:08:03;7.40;;;3.23;;
9056;SDS011;4563;54.756;9.400;2023-03-23T07:10:30;8.93;;;2.23;;
9056;SDS011;4563;54.756;9.400;2023-03-23T07:12:58;5.53;;;2.47;;
9056;SDS011;4563;54.756;9.400;2023-03-23T07:15:25;5.47;;;2.27;;
9056;SDS011;4563;54.756;9.400;2023-03-23T07:17:52;6.03;;;2.13;;
9056;SDS011;4563;54.756;9.400;2023-03-23T07:20:21;4.00;;;2.50;;
9056;SDS011;4563;54.756;9.400;2023-03-23T07:22:48;7.67;;;3.30;;
9056;SDS011;4563;54.756;9.400;2023-03-23T07:25:15;9.87;;;2.20;;
9056;SDS011;4563;54.756;9.400;2023-03-23T07:27:43;5.77;;;2.30;;
9056;SDS011;4563;54.756;9.400;2023-03-23T07:30:11;7.47;;;2.00;;
9056;SDS011;4563;54.756;9.400;2023-03-23T07:32:39;5.23;;;1.80;;
9056;SDS011;4563;54.756;9.400;2023-03-23T07:35:06;6.17;;;1.40;;
9056;SDS011;4563;54.756;9.400;2023-03-23T07:37:35;3.97;;;2.00;;
9056;SDS011;4563;54.756;9.400;2023-03-23T07:40:02;2.97;;;1.40;;
9056;SDS011;4563;54.756;9.400;2023-03-23T07:42:39;6.53;;;1.60;;
9056;SDS011;4563;54.756;9.400;2023-03-23T07:45:07;5.67;;;1.30;;
9056;SDS011;4563;54.756;9.400;2023-03-23T07:47:34;4.23;;;1.03;;
9056;SDS011;4563;54.756;9.400;2023-03-23T07:50:01;7.60;;;1.37;;
9056;SDS011;4563;54.756;9.400;2023-03-23T07:52:28;10.47;;;1.60;;
9056;SDS011;4563;54.756;9.400;2023-03-23T07:54:57;9.50;;;1.30;;
9056;SDS011;4563;54.756;9.400;2023-03-23T07:57:26;13.23;;;1.50;;
9056;SDS011;4563;54.756;9.400;2023-03-23T07:59:53;15.77;;;1.40;;
9056;SDS011;4563;54.756;9.400;2023-03-23T08:02:20;10.73;;;1.20;;
9056;SDS011;4563;54.756;9.400;2023-03-23T08:04:47;17.17;;;1.67;;
9056;SDS011;4563;54.756;9.400;2023-03-23T08:07:14;12.60;;;1.50;;
9056;SDS011;4563;54.756;9.400;2023-03-23T08:09:42;14.60;;;2.33;;
9056;SDS011;4563;54.756;9.400;2023-03-23T08:12:10;14.33;;;2.80;;
9056;SDS011;4563;54.756;9.400;2023-03-23T08:14:37;11.23;;;1.60;;
9056;SDS011;4563;54.756;9.400;2023-03-23T08:17:05;16.63;;;1.80;;
9056;SDS011;4563;54.756;9.400;2023-03-23T08:19:31;12.73;;;2.07;;
9056;SDS011;4563;54.756;9.400;2023-03-23T08:22:01;13.23;;;2.07;;
9056;SDS011;4563;54.756;9.400;2023-03-23T08:24:29;12.50;;;2.07;;
9056;SDS011;4563;54.756;9.400;2023-03-23T08:26:55;14.47;;;1.93;;
9056;SDS011;4563;54.756;9.400;2023-03-23T08:29:24;6.17;;;1.70;;
9056;SDS011;4563;54.756;9.400;2023-03-23T08:31:50;10.90;;;2.20;;
9056;SDS011;4563;54.756;9.400;2023-03-23T08:34:18;12.30;;;2.53;;
9056;SDS011;4563;54.756;9.400;2023-03-23T08:36:45;19.60;;;2.97;;
9056;SDS011;4563;54.756;9.400;2023-03-23T08:39:12;23.70;;;2.57;;
9056;SDS011;4563;54.756;9.400;2023-03-23T08:41:41;12.90;;;2.07;;
9056;SDS011;4563;54.756;9.400;2023-03-23T08:44:08;14.33;;;2.20;;
9056;SDS011;4563;54.756;9.400;2023-03-23T08:46:36;15.97;;;2.73;;
9056;SDS011;4563;54.756;9.400;2023-03-23T08:49:04;13.73;;;2.53;;
9056;SDS011;4563;54.756;9.400;2023-03-23T08:51:31;13.93;;;2.60;;
9056;SDS011;4563;54.756;9.400;2023-03-23T08:53:58;13.60;;;2.50;;
9056;SDS011;4563;54.756;9.400;2023-03-23T08:56:25;16.50;;;2.90;;
9056;SDS011;4563;54.756;9.400;2023-03-23T08:58:52;16.67;;;3.57;;
9056;SDS011;4563;54.756;9.400;2023-03-23T09:01:19;13.10;;;2.40;;
9056;SDS011;4563;54.756;9.400;2023-03-23T09:03:47;19.93;;;2.90;;
9056;SDS011;4563;54.756;9.400;2023-03-23T09:06:15;15.00;;;2.53;;
9056;SDS011;4563;54.756;9.400;2023-03-23T09:08:42;19.13;;;3.07;;
9056;SDS011;4563;54.756;9.400;2023-03-23T09:11:09;14.10;;;2.50;;
9056;SDS011;4563;54.756;9.400;2023-03-23T09:13:37;16.43;;;3.00;;
9056;SDS011;4563;54.756;9.400;2023-03-23T09:16:05;23.07;;;3.43;;
9056;SDS011;4563;54.756;9.400;2023-03-23T09:18:32;18.13;;;3.20;;
9056;SDS011;4563;54.756;9.400;2023-03-23T09:21:01;20.60;;;3.10;;
9056;SDS011;4563;54.756;9.400;2023-03-23T09:23:29;23.30;;;3.77;;
9056;SDS011;4563;54.756;9.400;2023-03-23T09:25:56;21.13;;;3.30;;
9056;SDS011;4563;54.756;9.400;2023-03-23T09:28:23;24.50;;;4.83;;
9056;SDS011;4563;54.756;9.400;2023-03-23T09:30:50;21.87;;;3.43;;
9056;SDS011;4563;54.756;9.400;2023-03-23T09:33:17;21.97;;;3.90;;
9056;SDS011;4563;54.756;9.400;2023-03-23T09:35:44;26.20;;;3.73;;
9056;SDS011;4563;54.756;9.400;2023-03-23T09:38:12;22.10;;;3.43;;
9056;SDS011;4563;54.756;9.400;2023-03-23T09:40:43;21.43;;;3.30;;
9056;SDS011;4563;54.756;9.400;2023-03-23T09:46:05;24.20;;;3.83;;
9056;SDS011;4563;54.756;9.400;2023-03-23T09:48:50;20.40;;;2.93;;
9056;SDS011;4563;54.756;9.400;2023-03-23T09:51:24;23.17;;;3.50;;
9056;SDS011;4563;54.756;9.400;2023-03-23T09:54:00;19.93;;;3.37;;
9056;SDS011;4563;54.756;9.400;2023-03-23T09:56:31;17.87;;;4.27;;
9056;SDS011;4563;54.756;9.400;2023-03-23T09:59:00;19.70;;;2.73;;
9056;SDS011;4563;54.756;9.400;2023-03-23T10:01:32;21.97;;;3.30;;
9056;SDS011;4563;54.756;9.400;2023-03-23T10:04:03;20.23;;;3.27;;
9056;SDS011;4563;54.756;9.400;2023-03-23T10:06:37;18.60;;;3.40;;
9056;SDS011;4563;54.756;9.400;2023-03-23T10:09:05;25.67;;;4.57;;
9056;SDS011;4563;54.756;9.400;2023-03-23T10:11:40;19.03;;;3.20;;
9056;SDS011;4563;54.756;9.400;2023-03-23T10:14:19;15.77;;;3.30;;
9056;SDS011;4563;54.756;9.400;2023-03-23T10:16:55;17.60;;;3.40;;
9056;SDS011;4563;54.756;9.400;2023-03-23T10:19:31;23.67;;;3.33;;
9056;SDS011;4563;54.756;9.400;2023-03-23T10:22:03;17.90;;;3.50;;
9056;SDS011;4563;54.756;9.400;2023-03-23T10:24:34;14.83;;;2.23;;
9056;SDS011;4563;54.756;9.400;2023-03-23T10:27:05;16.33;;;2.43;;
9056;SDS011;4563;54.756;9.400;2023-03-23T10:29:40;22.33;;;4.13;;
9056;SDS011;4563;54.756;9.400;2023-03-23T10:32:13;24.20;;;3.40;;
9056;SDS011;4563;54.756;9.400;2023-03-23T10:34:43;10.23;;;1.70;;
9056;SDS011;4563;54.756;9.400;2023-03-23T10:37:15;15.27;;;3.37;;
9056;SDS011;4563;54.756;9.400;2023-03-23T10:39:47;13.63;;;2.43;;
9056;SDS011;4563;54.756;9.400;2023-03-23T10:42:23;11.07;;;2.40;;
9056;SDS011;4563;54.756;9.400;2023-03-23T10:44:51;16.20;;;2.90;;
9056;SDS011;4563;54.756;9.400;2023-03-23T10:47:18;15.60;;;2.40;;
9056;SDS011;4563;54.756;9.400;2023-03-23T10:49:46;13.63;;;2.43;;
9056;SDS011;4563;54.756;9.400;2023-03-23T10:52:22;13.00;;;2.13;;
9056;SDS011;4563;54.756;9.400;2023-03-23T10:54:56;18.73;;;3.33;;
9056;SDS011;4563;54.756;9.400;2023-03-23T10:57:25;10.93;;;2.57;;
9056;SDS011;4563;54.756;9.400;2023-03-23T11:00:01;10.67;;;2.20;;
9056;SDS011;4563;54.756;9.400;2023-03-23T11:02:35;12.00;;;2.40;;
9056;SDS011;4563;54.756;9.400;2023-03-23T11:05:07;15.07;;;2.13;;
9056;SDS011;4563;54.756;9.400;2023-03-23T11:07:47;14.60;;;2.40;;
9056;SDS011;4563;54.756;9.400;2023-03-23T11:10:22;16.70;;;3.10;;
9056;SDS011;4563;54.756;9.400;2023-03-23T11:12:50;14.93;;;2.47;;
9056;SDS011;4563;54.756;9.400;2023-03-23T11:15:22;18.10;;;3.07;;
9056;SDS011;4563;54.756;9.400;2023-03-23T11:17:56;9.97;;;2.17;;
9056;SDS011;4563;54.756;9.400;2023-03-23T11:20:24;12.40;;;2.83;;
9056;SDS011;4563;54.756;9.400;2023-03-23T11:22:53;16.43;;;2.83;;
9056;SDS011;4563;54.756;9.400;2023-03-23T11:25:22;13.33;;;2.73;;
9056;SDS011;4563;54.756;9.400;2023-03-23T11:27:49;20.80;;;2.67;;
9056;SDS011;4563;54.756;9.400;2023-03-23T11:30:21;15.43;;;2.47;;
9056;SDS011;4563;54.756;9.400;2023-03-23T11:32:52;15.67;;;2.13;;
9056;SDS011;4563;54.756;9.400;2023-03-23T11:35:21;14.33;;;2.77;;
9056;SDS011;4563;54.756;9.400;2023-03-23T11:37:50;9.93;;;2.20;;
9056;SDS011;4563;54.756;9.400;2023-03-23T11:40:19;14.97;;;2.67;;
9056;SDS011;4563;54.756;9.400;2023-03-23T11:42:49;12.80;;;2.67;;
9056;SDS011;4563;54.756;9.400;2023-03-23T11:45:24;10.30;;;2.07;;
9056;SDS011;4563;54.756;9.400;2023-03-23T11:47:59;15.57;;;2.90;;
9056;SDS011;4563;54.756;9.400;2023-03-23T11:50:43;5.80;;;1.63;;
9056;SDS011;4563;54.756;9.400;2023-03-23T11:53:15;12.90;;;2.47;;
9056;SDS011;4563;54.756;9.400;2023-03-23T11:55:55;8.27;;;1.60;;
9056;SDS011;4563;54.756;9.400;2023-03-23T11:58:29;10.93;;;1.80;;
9056;SDS011;4563;54.756;9.400;2023-03-23T12:00:58;9.47;;;1.70;;
9056;SDS011;4563;54.756;9.400;2023-03-23T12:03:39;12.60;;;2.03;;
9056;SDS011;4563;54.756;9.400;2023-03-23T12:06:26;9.63;;;1.20;;
9056;SDS011;4563;54.756;9.400;2023-03-23T12:09:04;7.33;;;1.40;;
9056;SDS011;4563;54.756;9.400;2023-03-23T12:11:45;9.23;;;3.43;;
9056;SDS011;4563;54.756;9.400;2023-03-23T12:14:24;7.10;;;1.80;;
9056;SDS011;4563;54.756;9.400;2023-03-23T12:16:59;11.60;;;1.70;;
9056;SDS011;4563;54.756;9.400;2023-03-23T12:19:33;9.83;;;1.90;;
9056;SDS011;4563;54.756;9.400;2023-03-23T12:22:11;11.40;;;1.93;;
9056;SDS011;4563;54.756;9.400;2023-03-23T12:24:52;6.40;;;1.03;;
9056;SDS011;4563;54.756;9.400;2023-03-23T12:27:29;11.70;;;1.83;;
9056;SDS011;4563;54.756;9.400;2023-03-23T12:30:15;13.33;;;1.53;;
9056;SDS011;4563;54.756;9.400;2023-03-23T12:32:52;5.07;;;1.00;;
9056;SDS011;4563;54.756;9.400;2023-03-23T12:35:49;6.37;;;0.93;;
9056;SDS011;4563;54.756;9.400;2023-03-23T12:38:32;9.57;;;2.07;;
9056;SDS011;4563;54.756;9.400;2023-03-23T12:41:16;10.23;;;1.83;;
9056;SDS011;4563;54.756;9.400;2023-03-23T12:43:49;9.17;;;1.60;;
9056;SDS011;4563;54.756;9.400;2023-03-23T12:46:27;7.90;;;1.70;;
9056;SDS011;4563;54.756;9.400;2023-03-23T12:49:04;12.00;;;1.83;;
9056;SDS011;4563;54.756;9.400;2023-03-23T12:51:38;12.00;;;1.73;;
9056;SDS011;4563;54.756;9.400;2023-03-23T12:54:11;14.27;;;2.30;;
9056;SDS011;4563;54.756;9.400;2023-03-23T12:56:46;15.00;;;4.73;;
9056;SDS011;4563;54.756;9.400;2023-03-23T12:59:23;16.33;;;2.87;;
9056;SDS011;4563;54.756;9.400;2023-03-23T13:01:56;11.33;;;1.93;;
9056;SDS011;4563;54.756;9.400;2023-03-23T13:04:27;9.23;;;2.03;;
9056;SDS011;4563;54.756;9.400;2023-03-23T13:06:59;11.67;;;2.27;;
9056;SDS011;4563;54.756;9.400;2023-03-23T13:09:31;12.47;;;2.27;;
9056;SDS011;4563;54.756;9.400;2023-03-23T13:12:03;12.00;;;1.93;;
9056;SDS011;4563;54.756;9.400;2023-03-23T13:14:37;10.07;;;2.00;;
9056;SDS011;4563;54.756;9.400;2023-03-23T13:17:16;11.80;;;2.27;;
9056;SDS011;4563;54.756;9.400;2023-03-23T13:19:59;14.07;;;2.43;;
9056;SDS011;4563;54.756;9.400;2023-03-23T13:22:41;11.77;;;1.50;;
9056;SDS011;4563;54.756;9.400;2023-03-23T13:25:15;9.33;;;2.00;;
9056;SDS011;4563;54.756;9.400;2023-03-23T13:27:55;9.50;;;2.00;;
9056;SDS011;4563;54.756;9.400;2023-03-23T13:30:25;7.57;;;1.40;;
9056;SDS011;4563;54.756;9.400;2023-03-23T13:33:00;16.53;;;2.40;;
9056;SDS011;4563;54.756;9.400;2023-03-23T13:35:32;16.70;;;2.10;;
9056;SDS011;4563;54.756;9.400;2023-03-23T13:38:02;6.40;;;1.27;;
9056;SDS011;4563;54.756;9.400;2023-03-23T13:40:40;8.70;;;1.33;;
9056;SDS011;4563;54.756;9.400;2023-03-23T13:43:09;13.93;;;2.10;;
9056;SDS011;4563;54.756;9.400;2023-03-23T13:45:43;11.97;;;2.07;;
9056;SDS011;4563;54.756;9.400;2023-03-23T13:48:21;9.53;;;1.73;;
9056;SDS011;4563;54.756;9.400;2023-03-23T13:50:51;11.67;;;2.17;;
9056;SDS011;4563;54.756;9.400;2023-03-23T13:53:22;13.43;;;2.27;;
9056;SDS011;4563;54.756;9.400;2023-03-23T13:56:03;9.70;;;2.40;;
9056;SDS011;4563;54.756;9.400;2023-03-23T13:58:43;11.77;;;2.10;;
9056;SDS011;4563;54.756;9.400;2023-03-23T14:01:13;10.70;;;1.93;;
9056;SDS011;4563;54.756;9.400;2023-03-23T14:03:43;8.17;;;1.53;;
9056;SDS011;4563;54.756;9.400;2023-03-23T14:06:15;12.03;;;2.17;;
9056;SDS011;4563;54.756;9.400;2023-03-23T14:08:45;18.77;;;1.97;;
9056;SDS011;4563;54.756;9.400;2023-03-23T14:11:16;8.73;;;1.53;;
9056;SDS011;4563;54.756;9.400;2023-03-23T14:13:47;11.67;;;1.77;;
9056;SDS011;4563;54.756;9.400;2023-03-23T14:16:26;12.00;;;1.93;;
9056;SDS011;4563;54.756;9.400;2023-03-23T14:18:58;10.97;;;2.30;;
9056;SDS011;4563;54.756;9.400;2023-03-23T14:21:33;11.63;;;1.87;;
9056;SDS011;4563;54.756;9.400;2023-03-23T14:24:02;13.63;;;2.13;;
9056;SDS011;4563;54.756;9.400;2023-03-23T14:26:32;8.37;;;1.87;;
9056;SDS011;4563;54.756;9.400;2023-03-23T14:29:01;9.60;;;2.10;;
9056;SDS011;4563;54.756;9.400;2023-03-23T14:31:30;11.40;;;2.33;;
9056;SDS011;4563;54.756;9.400;2023-03-23T14:34:02;12.00;;;2.15;;
9056;SDS011;4563;54.756;9.400;2023-03-23T14:36:31;4.40;;;1.23;;
9056;SDS011;4563;54.756;9.400;2023-03-23T14:39:01;7.70;;;1.77;;
9056;SDS011;4563;54.756;9.400;2023-03-23T14:41:31;7.37;;;1.90;;
9056;SDS011;4563;54.756;9.400;2023-03-23T14:43:59;8.20;;;1.60;;
9056;SDS011;4563;54.756;9.400;2023-03-23T14:46:27;8.07;;;1.80;;
9056;SDS011;4563;54.756;9.400;2023-03-23T14:48:59;7.70;;;1.87;;
9056;SDS011;4563;54.756;9.400;2023-03-23T14:51:27;7.57;;;1.93;;
9056;SDS011;4563;54.756;9.400;2023-03-23T14:53:54;8.90;;;1.60;;
9056;SDS011;4563;54.756;9.400;2023-03-23T14:56:22;8.70;;;1.80;;
9056;SDS011;4563;54.756;9.400;2023-03-23T14:58:53;7.50;;;1.43;;
9056;SDS011;4563;54.756;9.400;2023-03-23T15:01:21;12.33;;;2.47;;
9056;SDS011;4563;54.756;9.400;2023-03-23T15:03:53;11.37;;;2.10;;
9056;SDS011;4563;54.756;9.400;2023-03-23T15:06:25;15.10;;;2.47;;
9056;SDS011;4563;54.756;9.400;2023-03-23T15:08:53;13.03;;;2.17;;
9056;SDS011;4563;54.756;9.400;2023-03-23T15:11:24;17.87;;;2.90;;
9056;SDS011;4563;54.756;9.400;2023-03-23T15:13:55;13.70;;;2.80;;
9056;SDS011;4563;54.756;9.400;2023-03-23T15:16:28;16.03;;;2.60;;
9056;SDS011;4563;54.756;9.400;2023-03-23T15:18:59;14.10;;;2.63;;
9056;SDS011;4563;54.756;9.400;2023-03-23T15:21:29;15.03;;;2.30;;
9056;SDS011;4563;54.756;9.400;2023-03-23T15:23:57;11.53;;;2.57;;
9056;SDS011;4563;54.756;9.400;2023-03-23T15:26:26;14.10;;;3.00;;
9056;SDS011;4563;54.756;9.400;2023-03-23T15:29:10;15.87;;;3.30;;
9056;SDS011;4563;54.756;9.400;2023-03-23T15:31:43;17.17;;;3.47;;